• Join FlightAware (Why Join?)
  • Login
  • US Flag 
06:07PM EDT


 

Airport Tracker/Info


-or-


 

Live Flight TrackerFlight Track Log ✈ KAL724 ✈ 04-May-2013 ✈ RJBB / KIX - RKSI / ICN

Flight Track Log - Related Links

Times and Time Zones

All times are in EDT time to prevent confusion due to time zone crossing. See the KAL724 flight status page for this flight to view local times or setup timezone preferences in your user account.

Time Position Orientation Groundspeed Altitude Reporting Facility
EDT Latitude Longitude Course Direction KTS MPH feet Rate Location/Type
11:11PM 34.4460 135.2700 37° Northeast 162 186 2,100  Level FlightAware
11:12PM 34.4630 135.2860 38° Northeast 173 199 3,300 1,740 Climbing FlightAware
11:12PM 34.4810 135.3030 38° Northeast 226 260 3,700 1,800 Climbing FlightAware
11:12PM 34.5130 135.2930 346° North 251 289 5,000 3,360 Climbing FlightAware
11:13PM 34.5370 135.2740 327° Northwest 253 291 6,800 3,900 Climbing FlightAware
11:13PM 34.5650 135.2450 320° Northwest 261 300 8,600 3,600 Climbing FlightAware
11:14PM 34.5700 135.2260 288° West 265 305 9,500 2,940 Climbing FlightAware
11:14PM 34.5800 135.1670 282° West 299 344 11,300 3,120 Climbing FlightAware
11:15PM 34.5940 135.0910 283° West 309 356 14,000 3,300 Climbing FlightAware
11:16PM 34.6070 135.0220 283° West 323 372 16,000 3,000 Climbing FlightAware
11:16PM 34.5970 134.9690 257° West 331 381 17,500 3,240 Climbing FlightAware
11:17PM 34.5660 134.9040 240° Southwest 326 375 19,800 3,360 Climbing FlightAware
11:18PM 34.5430 134.8440 245° Southwest 320 368 22,000 2,880 Climbing FlightAware
11:18PM 34.5480 134.7570 274° West 328 377 23,900 2,220 Climbing FlightAware
11:19PM 34.5540 134.6820 276° West 338 389 25,200 2,100 Climbing FlightAware
11:20PM 34.5610 134.5970 276° West 342 394 26,900 2,100 Climbing FlightAware
11:20PM 34.5670 134.5200 275° West 348 400 28,200 1,800 Climbing FlightAware
11:21PM 34.5740 134.4310 275° West 356 410 29,500 1,500 Climbing FlightAware
11:22PM 34.5810 134.3510 276° West 366 421 30,400 1,380 Climbing FlightAware
11:22PM 34.5870 134.2680 275° West 373 429 31,400 1,680 Climbing FlightAware
11:23PM 34.5950 134.1750 276° West 370 426 32,800 1,800 Climbing FlightAware
11:24PM 34.6010 134.0950 275° West 367 422 34,000 840 Climbing FlightAware
11:25PM 34.6080 134.0000 275° West 389 448 34,000  Level FlightAware
11:25PM 34.6150 133.9150 276° West 390 449 34,000  Level FlightAware
11:26PM 34.6230 133.8230 276° West 393 452 34,000  Level FlightAware
11:27PM 34.6500 133.7360 291° West 404 465 34,000  Level FlightAware
11:27PM 34.7000 133.6620 309° West 421 484 34,000  Level FlightAware
11:28PM 34.7620 133.5940 318° Northwest 427 491 34,000  Level FlightAware
11:29PM 34.8260 133.5250 318° Northwest 429 494 34,000  Level FlightAware
11:29PM 34.8850 133.4600 318° Northwest 431 496 34,000  Level FlightAware
11:30PM 34.9550 133.3840 318° Northwest 429 494 34,000  Level FlightAware
11:31PM 35.0110 133.3230 318° Northwest 430 495 34,000  Level FlightAware
11:32PM 35.0740 133.2550 319° Northwest 431 496 34,000  Level FlightAware
11:32PM 35.1370 133.1850 318° Northwest 430 495 34,000  Level FlightAware
11:33PM 35.1970 133.1200 318° Northwest 434 499 34,000  Level FlightAware
11:34PM 35.2610 133.0480 317° Northwest 439 505 34,000  Level FlightAware
11:34PM 35.3180 132.9850 318° Northwest 439 505 34,000  Level FlightAware
11:35PM 35.3890 132.9070 318° Northwest 440 506 34,000  Level FlightAware
11:36PM 35.4770 132.8100 318° Northwest 436 502 34,000  Level FlightAware
11:37PM 35.5320 132.7440 316° Northwest 434 499 34,000  Level FlightAware
11:37PM 35.5780 132.6500 301° West 429 494 34,000  Level FlightAware
11:38PM 35.5980 132.5610 285° West 432 497 34,000  Level FlightAware
11:39PM 35.6120 132.4550 279° West 430 495 34,000  Level FlightAware
11:39PM 35.6240 132.3630 279° West 429 494 34,000  Level FlightAware
11:40PM 35.6380 132.2600 280° West 429 494 34,000  Level FlightAware
11:41PM 35.6530 132.1330 278° West 428 493 34,000  Level FlightAware
11:42PM 35.6650 132.0440 279° West 428 493 34,000  Level FlightAware
11:43PM 35.6840 131.8920 279° West 429 494 34,000  Level FlightAware
11:43PM 35.6930 131.8100 278° West 429 494 34,000  Level FlightAware
11:44PM 35.7110 131.6790 280° West 431 496 34,000  Level FlightAware
11:45PM 35.7200 131.6010 278° West 431 496 34,000  Level FlightAware
11:46PM 35.7320 131.4980 278° West 431 496 34,000  Level FlightAware
11:46PM 35.7410 131.4150 278° West 431 496 34,000  Level FlightAware
11:49PM 35.8147 131.2188 295° West  Level Estimated
11:49PM 35.7940 130.9850 295° West 439 505 34,000  Level FlightAware
11:50PM 35.8110 130.8870 282° West 437 503 34,000  Level FlightAware
11:50PM 35.8420 130.7990 294° West 438 504 34,000  Level FlightAware
11:51PM 35.8770 130.7060 295° West 441 507 34,000  Level FlightAware
11:52PM 35.9180 130.6020 296° West 439 505 34,000  Level FlightAware
11:52PM 35.9530 130.5120 296° West 437 503 34,000  Level FlightAware
11:53PM 35.9910 130.4150 296° West 436 502 34,000  Level FlightAware
11:54PM 36.0310 130.3120 296° West 433 498 34,000  Level FlightAware
11:54PM 36.0580 130.2400 295° West 433 498 34,000  Level FlightAware
11:55PM 36.1050 130.1170 295° West 437 503 34,000  Level FlightAware
11:56PM 36.1440 130.0180 296° West 436 502 34,000  Level FlightAware
11:57PM 36.2190 129.8210 295° West 438 504 34,000  Level FlightAware
11:58PM 36.2560 129.7220 295° West 433 498 34,000  Level FlightAware
11:59PM 36.2840 129.6510 296° West 431 496 34,000  Level FlightAware
12:00AM 36.3250 129.5390 294° West 430 495 34,000  Level FlightAware
12:01AM 36.3750 129.4080 295° West 426 490 34,000  Level FlightAware
12:01AM 36.4060 129.3230 294° West 425 489 34,000  Level FlightAware
12:02AM 36.3800 129.3950 114° Southeast 422 486 34,000  Level FlightAware
12:03AM 36.4760 129.1370 295° West 423 487 34,000  Level FlightAware
12:03AM 36.5070 129.0510 294° West 423 487 34,000  Level FlightAware
12:04AM 36.4890 129.1020 114° Southeast 426 490 34,000  Level FlightAware
12:05AM 36.5770 128.8650 295° West 426 490 34,000  Level FlightAware
12:05AM 36.6080 128.7790 294° West 425 489 34,000 -360 Level FlightAware
12:06AM 36.6500 128.6650 295° West 429 494 33,500 -300 Descending FlightAware
12:07AM 36.6840 128.5690 294° West 429 494 33,500 -1,800 Level FlightAware
12:08AM 36.6320 128.7170 114° Southeast 440 506 30,800 -1,920 Descending FlightAware
12:08AM 36.6650 128.6220 293° West 440 506 30,800  Level FlightAware
12:09AM 36.6940 128.5430 295° West 440 506 30,800  Level FlightAware
12:10AM 36.7220 128.4640 294° West 440 506 30,800  Level FlightAware
12:10AM 36.7500 128.3850 294° West 440 506 30,800  Level FlightAware
12:11AM 36.7780 128.3060 294° West 440 506 30,800  Level FlightAware
12:12AM 36.8130 128.2080 294° West 440 506 30,800  Level FlightAware
12:13AM 36.8410 128.1290 294° West 440 506 30,800 -5,160 Level FlightAware
12:13AM 36.9850 127.7310 294° West 19,900 -6,780 Descending FlightAware
12:15AM 37.0290 127.5670 289° West 357 411 16,700 -1,980 Descending FlightAware
12:16AM 37.0660 127.4320 289° West 333 383 14,800 -1,980 Descending FlightAware
12:17AM 37.1090 127.2770 289° West 329 379 11,600 -1,800 Descending FlightAware
12:18AM 37.1430 127.1540 289° West 299 344 10,200 -1,140 Descending FlightAware
12:19AM 37.1550 127.1070 288° West 280 322 9,700 -960 Descending FlightAware
12:20AM 37.1790 127.0120 288° West 275 316 8,800 -1,080 Descending FlightAware
12:21AM 37.2020 126.9240 288° West 266 306 7,600 -1,080 Descending FlightAware
12:22AM 37.2270 126.8260 288° West 239 275 6,500 -1,140 Descending FlightAware
12:23AM 37.2360 126.7900 287° West 239 275 5,700 -1,680 Descending FlightAware
12:23AM 37.2510 126.7360 289° West 215 247 4,600 -1,020 Descending FlightAware
12:24AM 37.2610 126.6960 287° West 217 250 4,400 -720 Descending FlightAware
12:25AM 37.2730 126.6510 289° West 201 231 3,700 -600 Descending FlightAware
12:26AM 37.2960 126.6080 304° West 165 190 3,500 -180 Descending FlightAware
12:26AM 37.3110 126.5930 322° Northwest 165 190 3,500  Level FlightAware
12:29AM 37.4691 126.4505 324° Northwest  Level Estimated
12:30AM 37.4691 126.4505 335° Northwest  Level Estimated
12:31AM 37.4691 126.4505 335° Northwest  Level Estimated
12:32AM 37.4691 126.4505 335° Northwest  Level Estimated
12:33AM 37.4691 126.4505 335° Northwest  Level Estimated
12:34AM 37.4691 126.4505 335° Northwest  Level Estimated
12:35AM 37.4691 126.4505 335° Northwest  Level Estimated
12:36AM 37.4691 126.4505 335° Northwest  Level Estimated
12:37AM 37.4691 126.4505 335° Northwest  Level Estimated
12:38AM 37.4691 126.4505 335° Northwest  Level Estimated
12:39AM 37.4691 126.4505 335° Northwest  Level Estimated
12:40AM 37.4691 126.4505 335° Northwest  Level Estimated
12:41AM 37.4691 126.4505 335° Northwest  Level Estimated
12:42AM 37.4691 126.4505 335° Northwest  Level Estimated
12:43AM 37.4691 126.4505 335° Northwest  Level Estimated
12:44AM 37.4691 126.4505 335° Northwest  Level Estimated
12:45AM 37.4691 126.4505 335° Northwest  Level Estimated
12:46AM 37.4691 126.4505 335° Northwest  Level Estimated
12:47AM 37.4691 126.4505 335° Northwest  Level Estimated
12:48AM 37.4691 126.4505 335° Northwest  Level Estimated
12:49AM 37.4691 126.4505 335° Northwest  Level Estimated
12:50AM 37.4691 126.4505 335° Northwest  Level Estimated
12:51AM 37.4691 126.4505 335° Northwest  Level Estimated